Portada
METAR-TAF:

METAR-TAF

Aeroports :

Valledupar, Colòmbia

latitud: 10-26N, longitud: 073-15W, altitud: 138 m

Observació

L'informe es va fer fa 43 minuts, a les 18:00 UTC
Vent 6 kt del Oest/Nord-Oest
Temperatura 32°C
Humitat 63%
Pressió 1013 hPa
Visibilitat 10 km o més
Núvols disperses a una alçada de 2000 ft
Cel ennuvolat a una alçada de 20000 ft

METAR: SKVP 241800Z 30006KT 9999 SCT020 BKN200 32/24 A2990

Hora: 13:43 (18:43 UTC)


TAF: manca

Observacions i pronòstics meteorològics de més de 4000 aeroports (METAR i TAF).

Les estacions disponibles són els punts grocs i vermells al mapa.

Posi el ratolí al punt desitjat per veure el nom de l'estació.

Feu clic per veure les observacions i els pronòstics meteorològics.

Per canviar el mapa: feu clic els botons verds amb una creu de color negre per apropar; al botó verd amb un guió per allunyar la imatge; o en les fletxes verdes per a mapes adjacents.


METAR-TAF: